sensor_id;sensor_type;location;lat;lon;timestamp;pressure;altitude;pressure_sealevel;temperature;humidity
75942;BME280;64622;46.220;19.878;2024-02-21T00:01:14;101266.84;;;8.65;100.00
75942;BME280;64622;46.220;19.878;2024-02-21T00:03:41;101268.91;;;8.62;100.00
75942;BME280;64622;46.220;19.878;2024-02-21T00:06:07;101254.84;;;8.60;100.00
75942;BME280;64622;46.220;19.878;2024-02-21T00:08:34;101263.22;;;8.55;100.00
75942;BME280;64622;46.220;19.878;2024-02-21T00:11:00;101265.03;;;8.55;100.00
75942;BME280;64622;46.220;19.878;2024-02-21T00:13:26;101262.75;;;8.50;100.00
75942;BME280;64622;46.220;19.878;2024-02-21T00:15:52;101273.28;;;8.52;100.00
75942;BME280;64622;46.220;19.878;2024-02-21T00:18:19;101271.34;;;8.54;100.00
75942;BME280;64622;46.220;19.878;2024-02-21T00:20:45;101280.19;;;8.54;100.00
75942;BME280;64622;46.220;19.878;2024-02-21T00:23:11;101273.03;;;8.55;100.00
75942;BME280;64622;46.220;19.878;2024-02-21T00:25:38;101274.50;;;8.48;100.00
75942;BME280;64622;46.220;19.878;2024-02-21T00:28:05;101280.94;;;8.45;100.00
75942;BME280;64622;46.220;19.878;2024-02-21T00:30:32;101279.09;;;8.35;100.00
75942;BME280;64622;46.220;19.878;2024-02-21T00:32:58;101261.53;;;8.21;100.00
75942;BME280;64622;46.220;19.878;2024-02-21T00:35:24;101267.53;;;8.12;100.00
75942;BME280;64622;46.220;19.878;2024-02-21T00:37:51;101253.13;;;8.14;100.00
75942;BME280;64622;46.220;19.878;2024-02-21T00:40:18;101269.72;;;8.18;100.00
75942;BME280;64622;46.220;19.878;2024-02-21T00:42:46;101271.09;;;8.24;100.00
75942;BME280;64622;46.220;19.878;2024-02-21T00:45:13;101262.56;;;8.18;100.00
75942;BME280;64622;46.220;19.878;2024-02-21T00:47:39;101270.19;;;8.12;100.00
75942;BME280;64622;46.220;19.878;2024-02-21T00:50:06;101264.63;;;8.04;100.00
75942;BME280;64622;46.220;19.878;2024-02-21T00:52:33;101269.00;;;8.05;100.00
75942;BME280;64622;46.220;19.878;2024-02-21T00:55:00;101260.50;;;7.89;100.00
75942;BME280;64622;46.220;19.878;2024-02-21T00:57:26;101255.38;;;7.75;100.00
75942;BME280;64622;46.220;19.878;2024-02-21T00:59:52;101266.53;;;7.80;100.00
75942;BME280;64622;46.220;19.878;2024-02-21T01:02:19;101261.91;;;7.82;100.00
75942;BME280;64622;46.220;19.878;2024-02-21T01:04:45;101254.88;;;7.70;100.00
75942;BME280;64622;46.220;19.878;2024-02-21T01:07:11;101255.69;;;7.70;100.00
75942;BME280;64622;46.220;19.878;2024-02-21T01:09:38;101259.12;;;7.72;100.00
75942;BME280;64622;46.220;19.878;2024-02-21T01:12:04;101248.81;;;7.68;100.00
75942;BME280;64622;46.220;19.878;2024-02-21T01:14:31;101243.31;;;7.58;100.00
75942;BME280;64622;46.220;19.878;2024-02-21T01:16:57;101246.09;;;7.57;100.00
75942;BME280;64622;46.220;19.878;2024-02-21T01:19:23;101240.50;;;7.38;100.00
75942;BME280;64622;46.220;19.878;2024-02-21T01:21:50;101244.78;;;7.52;100.00
75942;BME280;64622;46.220;19.878;2024-02-21T01:24:16;101243.19;;;7.49;100.00
75942;BME280;64622;46.220;19.878;2024-02-21T01:26:42;101250.00;;;7.53;100.00
75942;BME280;64622;46.220;19.878;2024-02-21T01:29:09;101241.13;;;7.53;100.00
75942;BME280;64622;46.220;19.878;2024-02-21T01:31:35;101229.75;;;7.51;100.00
75942;BME280;64622;46.220;19.878;2024-02-21T01:34:02;101231.94;;;7.57;100.00
75942;BME280;64622;46.220;19.878;2024-02-21T01:36:28;101239.25;;;7.66;100.00
75942;BME280;64622;46.220;19.878;2024-02-21T01:38:55;101241.62;;;7.57;100.00
75942;BME280;64622;46.220;19.878;2024-02-21T01:41:21;101235.00;;;7.63;100.00
75942;BME280;64622;46.220;19.878;2024-02-21T01:43:47;101240.66;;;7.58;100.00
75942;BME280;64622;46.220;19.878;2024-02-21T01:46:14;101228.12;;;7.72;100.00
75942;BME280;64622;46.220;19.878;2024-02-21T01:48:40;101223.00;;;7.68;100.00
75942;BME280;64622;46.220;19.878;2024-02-21T01:51:06;101213.53;;;7.64;100.00
75942;BME280;64622;46.220;19.878;2024-02-21T01:53:36;101222.31;;;7.78;100.00
75942;BME280;64622;46.220;19.878;2024-02-21T01:56:05;101213.81;;;7.62;100.00
75942;BME280;64622;46.220;19.878;2024-02-21T01:58:33;101223.37;;;7.64;100.00
75942;BME280;64622;46.220;19.878;2024-02-21T02:01:03;101212.63;;;7.42;100.00
75942;BME280;64622;46.220;19.878;2024-02-21T02:03:29;101222.28;;;7.32;100.00
75942;BME280;64622;46.220;19.878;2024-02-21T02:05:56;101215.28;;;7.31;100.00
75942;BME280;64622;46.220;19.878;2024-02-21T02:08:22;101216.59;;;7.26;100.00
75942;BME280;64622;46.220;19.878;2024-02-21T02:10:49;101214.84;;;7.13;100.00
75942;BME280;64622;46.220;19.878;2024-02-21T02:13:15;101209.53;;;7.13;100.00
75942;BME280;64622;46.220;19.878;2024-02-21T02:18:10;101208.41;;;7.05;100.00
75942;BME280;64622;46.220;19.878;2024-02-21T02:20:37;101214.81;;;7.03;100.00
75942;BME280;64622;46.220;19.878;2024-02-21T02:23:09;101207.03;;;6.99;100.00
75942;BME280;64622;46.220;19.878;2024-02-21T02:25:37;101213.09;;;7.02;100.00
75942;BME280;64622;46.220;19.878;2024-02-21T02:28:06;101210.50;;;6.89;100.00
75942;BME280;64622;46.220;19.878;2024-02-21T02:30:33;101201.19;;;6.94;100.00
75942;BME280;64622;46.220;19.878;2024-02-21T02:33:05;101200.31;;;6.83;100.00
75942;BME280;64622;46.220;19.878;2024-02-21T02:35:32;101204.16;;;6.79;100.00
75942;BME280;64622;46.220;19.878;2024-02-21T02:37:58;101207.03;;;6.76;100.00
75942;BME280;64622;46.220;19.878;2024-02-21T02:40:25;101205.97;;;6.78;100.00
75942;BME280;64622;46.220;19.878;2024-02-21T02:42:51;101212.97;;;6.79;100.00
75942;BME280;64622;46.220;19.878;2024-02-21T02:45:22;101208.31;;;6.83;100.00
75942;BME280;64622;46.220;19.878;2024-02-21T02:47:53;101216.03;;;6.86;100.00
75942;BME280;64622;46.220;19.878;2024-02-21T02:50:20;101203.59;;;6.87;100.00
75942;BME280;64622;46.220;19.878;2024-02-21T02:52:46;101210.72;;;6.86;100.00
75942;BME280;64622;46.220;19.878;2024-02-21T02:55:13;101211.59;;;6.87;100.00
75942;BME280;64622;46.220;19.878;2024-02-21T02:57:39;101217.63;;;6.88;100.00
75942;BME280;64622;46.220;19.878;2024-02-21T03:00:08;101222.12;;;6.88;100.00
75942;BME280;64622;46.220;19.878;2024-02-21T03:02:38;101224.44;;;6.93;100.00
75942;BME280;64622;46.220;19.878;2024-02-21T03:05:16;101225.50;;;7.13;100.00
75942;BME280;64622;46.220;19.878;2024-02-21T03:07:43;101223.84;;;7.00;100.00
75942;BME280;64622;46.220;19.878;2024-02-21T03:10:10;101225.59;;;7.12;100.00
75942;BME280;64622;46.220;19.878;2024-02-21T03:12:37;101233.00;;;7.19;100.00
75942;BME280;64622;46.220;19.878;2024-02-21T03:15:04;101225.28;;;7.17;100.00
75942;BME280;64622;46.220;19.878;2024-02-21T03:17:31;101231.09;;;7.22;100.00
75942;BME280;64622;46.220;19.878;2024-02-21T03:19:58;101236.44;;;7.22;100.00
75942;BME280;64622;46.220;19.878;2024-02-21T03:22:31;101229.63;;;7.18;100.00
75942;BME280;64622;46.220;19.878;2024-02-21T03:24:58;101236.75;;;7.17;100.00
75942;BME280;64622;46.220;19.878;2024-02-21T03:27:25;101236.19;;;7.24;100.00
75942;BME280;64622;46.220;19.878;2024-02-21T03:29:51;101236.34;;;7.34;100.00
75942;BME280;64622;46.220;19.878;2024-02-21T03:32:18;101240.59;;;7.37;100.00
75942;BME280;64622;46.220;19.878;2024-02-21T03:34:44;101227.97;;;7.28;100.00
75942;BME280;64622;46.220;19.878;2024-02-21T03:37:10;101233.09;;;7.31;100.00
75942;BME280;64622;46.220;19.878;2024-02-21T03:39:37;101232.50;;;7.38;100.00
75942;BME280;64622;46.220;19.878;2024-02-21T03:42:04;101222.78;;;7.37;100.00
75942;BME280;64622;46.220;19.878;2024-02-21T03:44:34;101231.75;;;7.36;100.00
75942;BME280;64622;46.220;19.878;2024-02-21T03:47:00;101228.03;;;7.49;100.00
75942;BME280;64622;46.220;19.878;2024-02-21T03:49:26;101224.03;;;7.44;100.00
75942;BME280;64622;46.220;19.878;2024-02-21T03:51:53;101231.28;;;7.42;100.00
75942;BME280;64622;46.220;19.878;2024-02-21T03:54:19;101220.78;;;7.41;100.00
75942;BME280;64622;46.220;19.878;2024-02-21T03:56:46;101217.59;;;7.36;100.00
75942;BME280;64622;46.220;19.878;2024-02-21T03:59:15;101222.47;;;7.42;100.00
75942;BME280;64622;46.220;19.878;2024-02-21T04:01:41;101225.97;;;7.42;100.00
75942;BME280;64622;46.220;19.878;2024-02-21T04:04:09;101231.41;;;7.41;100.00
75942;BME280;64622;46.220;19.878;2024-02-21T04:06:35;101230.66;;;7.38;100.00
75942;BME280;64622;46.220;19.878;2024-02-21T04:09:02;101232.66;;;7.47;100.00
75942;BME280;64622;46.220;19.878;2024-02-21T04:11:29;101221.47;;;7.32;100.00
75942;BME280;64622;46.220;19.878;2024-02-21T04:13:55;101222.19;;;7.33;100.00
75942;BME280;64622;46.220;19.878;2024-02-21T04:16:22;101221.47;;;7.32;100.00
75942;BME280;64622;46.220;19.878;2024-02-21T04:18:48;101228.09;;;7.26;100.00
75942;BME280;64622;46.220;19.878;2024-02-21T04:21:14;101216.97;;;7.32;100.00
75942;BME280;64622;46.220;19.878;2024-02-21T04:23:42;101234.66;;;7.33;100.00
75942;BME280;64622;46.220;19.878;2024-02-21T04:26:09;101219.00;;;7.28;100.00
75942;BME280;64622;46.220;19.878;2024-02-21T04:28:35;101227.75;;;7.31;100.00
75942;BME280;64622;46.220;19.878;2024-02-21T04:31:01;101220.84;;;7.28;100.00
75942;BME280;64622;46.220;19.878;2024-02-21T04:33:28;101214.56;;;7.29;100.00
75942;BME280;64622;46.220;19.878;2024-02-21T04:35:54;101221.97;;;7.37;100.00
75942;BME280;64622;46.220;19.878;2024-02-21T04:38:21;101215.34;;;7.18;100.00
75942;BME280;64622;46.220;19.878;2024-02-21T04:40:47;101221.28;;;7.22;100.00
75942;BME280;64622;46.220;19.878;2024-02-21T04:43:14;101226.22;;;7.39;100.00
75942;BME280;64622;46.220;19.878;2024-02-21T04:45:41;101227.88;;;7.29;100.00
75942;BME280;64622;46.220;19.878;2024-02-21T04:48:07;101226.91;;;7.30;100.00
75942;BME280;64622;46.220;19.878;2024-02-21T04:50:33;101232.91;;;7.21;100.00
75942;BME280;64622;46.220;19.878;2024-02-21T04:53:00;101238.53;;;7.29;100.00
75942;BME280;64622;46.220;19.878;2024-02-21T04:55:26;101232.78;;;7.22;100.00
75942;BME280;64622;46.220;19.878;2024-02-21T04:57:52;101237.53;;;7.30;100.00
75942;BME280;64622;46.220;19.878;2024-02-21T05:00:19;101232.59;;;7.26;100.00
75942;BME280;64622;46.220;19.878;2024-02-21T05:02:45;101232.75;;;7.46;100.00
75942;BME280;64622;46.220;19.878;2024-02-21T05:05:12;101236.81;;;7.28;100.00
75942;BME280;64622;46.220;19.878;2024-02-21T05:07:39;101237.53;;;7.30;100.00
75942;BME280;64622;46.220;19.878;2024-02-21T05:10:07;101243.66;;;7.43;100.00
75942;BME280;64622;46.220;19.878;2024-02-21T05:12:33;101231.28;;;7.42;100.00
75942;BME280;64622;46.220;19.878;2024-02-21T05:15:00;101225.72;;;7.34;100.00
75942;BME280;64622;46.220;19.878;2024-02-21T05:17:26;101230.75;;;7.26;100.00
75942;BME280;64622;46.220;19.878;2024-02-21T05:19:52;101234.19;;;7.39;100.00
75942;BME280;64622;46.220;19.878;2024-02-21T05:22:19;101225.22;;;7.40;100.00
75942;BME280;64622;46.220;19.878;2024-02-21T05:24:45;101225.44;;;7.37;100.00
75942;BME280;64622;46.220;19.878;2024-02-21T05:27:12;101227.41;;;7.35;100.00
75942;BME280;64622;46.220;19.878;2024-02-21T05:29:38;101233.09;;;7.31;100.00
75942;BME280;64622;46.220;19.878;2024-02-21T05:32:05;101228.62;;;7.42;100.00
75942;BME280;64622;46.220;19.878;2024-02-21T05:34:31;101224.84;;;7.33;100.00
75942;BME280;64622;46.220;19.878;2024-02-21T05:36:57;101227.19;;;7.38;100.00
75942;BME280;64622;46.220;19.878;2024-02-21T05:39:26;101234.91;;;7.41;100.00
75942;BME280;64622;46.220;19.878;2024-02-21T05:41:52;101220.88;;;7.39;100.00
75942;BME280;64622;46.220;19.878;2024-02-21T05:44:18;101227.00;;;7.28;100.00
75942;BME280;64622;46.220;19.878;2024-02-21T05:46:46;101223.28;;;7.42;100.00
75942;BME280;64622;46.220;19.878;2024-02-21T05:49:12;101222.78;;;7.37;100.00
75942;BME280;64622;46.220;19.878;2024-02-21T05:51:38;101231.13;;;7.32;100.00
75942;BME280;64622;46.220;19.878;2024-02-21T05:54:05;101243.00;;;7.39;100.00
75942;BME280;64622;46.220;19.878;2024-02-21T05:56:31;101241.09;;;7.42;100.00
75942;BME280;64622;46.220;19.878;2024-02-21T05:58:57;101233.84;;;7.43;100.00
75942;BME280;64622;46.220;19.878;2024-02-21T06:01:24;101236.28;;;7.47;100.00
75942;BME280;64622;46.220;19.878;2024-02-21T06:03:51;101229.69;;;7.39;100.00
75942;BME280;64622;46.220;19.878;2024-02-21T06:06:17;101245.38;;;7.55;100.00
75942;BME280;64622;46.220;19.878;2024-02-21T06:08:43;101235.41;;;7.46;100.00
75942;BME280;64622;46.220;19.878;2024-02-21T06:11:10;101252.00;;;7.49;100.00
75942;BME280;64622;46.220;19.878;2024-02-21T06:13:38;101248.66;;;7.58;100.00
75942;BME280;64622;46.220;19.878;2024-02-21T06:16:07;101260.00;;;7.49;100.00
75942;BME280;64622;46.220;19.878;2024-02-21T06:18:35;101256.50;;;7.49;100.00
75942;BME280;64622;46.220;19.878;2024-02-21T06:21:03;101253.16;;;7.58;100.00
75942;BME280;64622;46.220;19.878;2024-02-21T06:23:29;101265.25;;;7.62;100.00
75942;BME280;64622;46.220;19.878;2024-02-21T06:25:56;101264.13;;;7.53;100.00
75942;BME280;64622;46.220;19.878;2024-02-21T06:28:22;101263.81;;;7.58;100.00
75942;BME280;64622;46.220;19.878;2024-02-21T06:30:48;101261.91;;;7.82;100.00
75942;BME280;64622;46.220;19.878;2024-02-21T06:33:15;101263.78;;;8.03;100.00
75942;BME280;64622;46.220;19.878;2024-02-21T06:35:41;101265.13;;;8.09;100.00
75942;BME280;64622;46.220;19.878;2024-02-21T06:38:08;101262.00;;;8.26;100.00
75942;BME280;64622;46.220;19.878;2024-02-21T06:40:35;101265.38;;;8.72;100.00
75942;BME280;64622;46.220;19.878;2024-02-21T06:43:05;101266.22;;;8.84;100.00
75942;BME280;64622;46.220;19.878;2024-02-21T06:45:31;101270.53;;;8.96;100.00
75942;BME280;64622;46.220;19.878;2024-02-21T06:47:58;101264.25;;;8.86;100.00
75942;BME280;64622;46.220;19.878;2024-02-21T06:50:24;101266.09;;;8.63;100.00
75942;BME280;64622;46.220;19.878;2024-02-21T06:52:50;101278.44;;;8.97;100.00
75942;BME280;64622;46.220;19.878;2024-02-21T06:55:17;101276.00;;;9.05;100.00
75942;BME280;64622;46.220;19.878;2024-02-21T06:57:43;101270.22;;;9.21;100.00
75942;BME280;64622;46.220;19.878;2024-02-21T07:00:10;101278.06;;;9.65;100.00
75942;BME280;64622;46.220;19.878;2024-02-21T07:02:37;101268.50;;;9.31;100.00
75942;BME280;64622;46.220;19.878;2024-02-21T07:05:03;101284.22;;;9.76;100.00
75942;BME280;64622;46.220;19.878;2024-02-21T07:07:30;101272.28;;;9.80;100.00
75942;BME280;64622;46.220;19.878;2024-02-21T07:09:56;101290.59;;;10.26;100.00
75942;BME280;64622;46.220;19.878;2024-02-21T07:12:22;101292.16;;;10.28;100.00
75942;BME280;64622;46.220;19.878;2024-02-21T07:14:49;101286.12;;;10.56;100.00
75942;BME280;64622;46.220;19.878;2024-02-21T07:17:15;101283.16;;;10.59;100.00
75942;BME280;64622;46.220;19.878;2024-02-21T07:19:41;101288.47;;;10.50;100.00
75942;BME280;64622;46.220;19.878;2024-02-21T07:22:07;101290.75;;;10.94;100.00
75942;BME280;64622;46.220;19.878;2024-02-21T07:24:34;101293.44;;;11.03;100.00
75942;BME280;64622;46.220;19.878;2024-02-21T07:27:00;101282.16;;;11.09;99.31
75942;BME280;64622;46.220;19.878;2024-02-21T07:29:30;101294.59;;;11.20;98.24
75942;BME280;64622;46.220;19.878;2024-02-21T07:31:57;101280.84;;;10.85;97.77
75942;BME280;64622;46.220;19.878;2024-02-21T07:34:23;101282.06;;;11.20;97.53
75942;BME280;64622;46.220;19.878;2024-02-21T07:36:49;101273.44;;;11.07;97.31
75942;BME280;64622;46.220;19.878;2024-02-21T07:39:16;101285.41;;;11.03;95.18
75942;BME280;64622;46.220;19.878;2024-02-21T07:41:43;101273.87;;;11.22;95.17
75942;BME280;64622;46.220;19.878;2024-02-21T07:44:11;101287.84;;;10.37;98.31
75942;BME280;64622;46.220;19.878;2024-02-21T07:46:37;101283.09;;;11.67;95.06
75942;BME280;64622;46.220;19.878;2024-02-21T07:49:03;101272.66;;;11.64;92.44
75942;BME280;64622;46.220;19.878;2024-02-21T07:51:29;101274.69;;;12.17;90.34
75942;BME280;64622;46.220;19.878;2024-02-21T07:53:56;101279.09;;;11.99;89.00
75942;BME280;64622;46.220;19.878;2024-02-21T07:56:22;101279.09;;;11.99;90.99
75942;BME280;64622;46.220;19.878;2024-02-21T07:58:49;101287.16;;;12.55;87.36
75942;BME280;64622;46.220;19.878;2024-02-21T08:01:21;101277.00;;;12.49;85.70
75942;BME280;64622;46.220;19.878;2024-02-21T08:03:47;101282.62;;;12.09;86.38
75942;BME280;64622;46.220;19.878;2024-02-21T08:06:14;101278.34;;;12.26;85.30
75942;BME280;64622;46.220;19.878;2024-02-21T08:08:40;101270.69;;;12.40;84.11
75942;BME280;64622;46.220;19.878;2024-02-21T08:11:07;101274.81;;;12.98;80.81
75942;BME280;64622;46.220;19.878;2024-02-21T08:13:33;101282.13;;;13.23;78.82
75942;BME280;64622;46.220;19.878;2024-02-21T08:15:59;101276.06;;;12.40;84.42
75942;BME280;64622;46.220;19.878;2024-02-21T08:18:26;101275.34;;;13.46;79.96
75942;BME280;64622;46.220;19.878;2024-02-21T08:20:52;101275.47;;;13.62;76.58
75942;BME280;64622;46.220;19.878;2024-02-21T08:23:18;101276.63;;;13.25;76.42
75942;BME280;64622;46.220;19.878;2024-02-21T08:25:45;101270.59;;;12.86;81.80
75942;BME280;64622;46.220;19.878;2024-02-21T08:28:12;101266.47;;;13.71;76.19
75942;BME280;64622;46.220;19.878;2024-02-21T08:30:39;101263.84;;;13.79;72.74
75942;BME280;64622;46.220;19.878;2024-02-21T08:33:05;101270.72;;;13.99;71.66
75942;BME280;64622;46.220;19.878;2024-02-21T08:35:32;101270.78;;;14.25;70.76
75942;BME280;64622;46.220;19.878;2024-02-21T08:37:59;101274.94;;;14.45;70.47
75942;BME280;64622;46.220;19.878;2024-02-21T08:40:25;101275.88;;;13.93;70.52
75942;BME280;64622;46.220;19.878;2024-02-21T08:42:51;101279.97;;;14.40;70.09
75942;BME280;64622;46.220;19.878;2024-02-21T08:45:19;101269.00;;;14.16;68.81
75942;BME280;64622;46.220;19.878;2024-02-21T08:47:46;101279.91;;;14.65;68.11
75942;BME280;64622;46.220;19.878;2024-02-21T08:50:12;101268.31;;;14.14;67.17
75942;BME280;64622;46.220;19.878;2024-02-21T08:52:39;101266.53;;;14.81;66.54
75942;BME280;64622;46.220;19.878;2024-02-21T08:55:06;101274.16;;;14.94;65.57
75942;BME280;64622;46.220;19.878;2024-02-21T08:57:32;101271.47;;;14.60;66.58
75942;BME280;64622;46.220;19.878;2024-02-21T09:00:06;101271.06;;;15.30;64.73
75942;BME280;64622;46.220;19.878;2024-02-21T09:02:40;101278.38;;;15.62;63.77
75942;BME280;64622;46.220;19.878;2024-02-21T09:05:08;101276.88;;;14.60;66.67
75942;BME280;64622;46.220;19.878;2024-02-21T09:07:35;101277.22;;;15.07;64.16
75942;BME280;64622;46.220;19.878;2024-02-21T09:10:01;101272.16;;;15.53;63.02
75942;BME280;64622;46.220;19.878;2024-02-21T09:12:28;101278.53;;;14.53;66.29
75942;BME280;64622;46.220;19.878;2024-02-21T09:14:56;101265.31;;;14.76;63.03
75942;BME280;64622;46.220;19.878;2024-02-21T09:17:22;101273.78;;;14.81;64.96
75942;BME280;64622;46.220;19.878;2024-02-21T09:19:50;101267.75;;;15.52;62.76
75942;BME280;64622;46.220;19.878;2024-02-21T09:22:17;101276.09;;;14.76;62.06
75942;BME280;64622;46.220;19.878;2024-02-21T09:24:43;101277.13;;;14.83;63.99
75942;BME280;64622;46.220;19.878;2024-02-21T09:27:09;101270.81;;;15.08;62.01
75942;BME280;64622;46.220;19.878;2024-02-21T09:29:36;101279.84;;;14.49;61.96
75942;BME280;64622;46.220;19.878;2024-02-21T09:32:02;101268.75;;;15.43;60.81
75942;BME280;64622;46.220;19.878;2024-02-21T09:34:29;101270.78;;;15.81;59.65
75942;BME280;64622;46.220;19.878;2024-02-21T09:36:56;101277.16;;;15.40;59.69
75942;BME280;64622;46.220;19.878;2024-02-21T09:39:22;101281.25;;;15.52;58.48
75942;BME280;64622;46.220;19.878;2024-02-21T09:42:02;101286.47;;;14.96;60.05
75942;BME280;64622;46.220;19.878;2024-02-21T09:44:38;101267.75;;;15.52;58.39
75942;BME280;64622;46.220;19.878;2024-02-21T09:47:08;101273.87;;;15.13;59.78
75942;BME280;64622;46.220;19.878;2024-02-21T09:49:36;101278.91;;;15.81;58.68
75942;BME280;64622;46.220;19.878;2024-02-21T09:52:04;101271.16;;;16.02;57.95
75942;BME280;64622;46.220;19.878;2024-02-21T09:54:35;101281.41;;;16.23;56.90
75942;BME280;64622;46.220;19.878;2024-02-21T09:57:02;101265.03;;;16.87;55.59
75942;BME280;64622;46.220;19.878;2024-02-21T09:59:31;101265.97;;;17.02;55.28
75942;BME280;64622;46.220;19.878;2024-02-21T10:01:58;101265.09;;;16.71;55.50
75942;BME280;64622;46.220;19.878;2024-02-21T10:04:28;101253.91;;;16.74;55.24
75942;BME280;64622;46.220;19.878;2024-02-21T10:06:55;101258.06;;;16.38;55.25
75942;BME280;64622;46.220;19.878;2024-02-21T10:09:25;101260.87;;;17.07;52.84
75942;BME280;64622;46.220;19.878;2024-02-21T10:11:56;101257.63;;;15.94;53.74
75942;BME280;64622;46.220;19.878;2024-02-21T10:14:22;101257.31;;;15.73;54.78
75942;BME280;64622;46.220;19.878;2024-02-21T10:16:56;101262.00;;;15.39;54.84
75942;BME280;64622;46.220;19.878;2024-02-21T10:19:24;101257.47;;;14.49;57.88
75942;BME280;64622;46.220;19.878;2024-02-21T10:22:06;101259.28;;;14.82;57.45
75942;BME280;64622;46.220;19.878;2024-02-21T10:24:34;101260.63;;;14.19;58.11
75942;BME280;64622;46.220;19.878;2024-02-21T10:27:07;101242.28;;;15.47;56.19
75942;BME280;64622;46.220;19.878;2024-02-21T10:29:35;101252.72;;;15.42;55.75
75942;BME280;64622;46.220;19.878;2024-02-21T10:34:31;101252.66;;;13.92;59.89
75942;BME280;64622;46.220;19.878;2024-02-21T10:37:04;101235.94;;;14.98;57.94
75942;BME280;64622;46.220;19.878;2024-02-21T10:39:35;101238.19;;;14.69;59.60
75942;BME280;64622;46.220;19.878;2024-02-21T10:42:03;101223.75;;;13.33;60.22
75942;BME280;64622;46.220;19.878;2024-02-21T10:44:35;101222.84;;;13.85;59.30
75942;BME280;64622;46.220;19.878;2024-02-21T10:47:10;101225.19;;;14.06;58.84
75942;BME280;64622;46.220;19.878;2024-02-21T10:49:40;101225.00;;;15.16;56.55
75942;BME280;64622;46.220;19.878;2024-02-21T10:52:17;101226.09;;;13.89;58.49
75942;BME280;64622;46.220;19.878;2024-02-21T10:54:55;101217.47;;;14.11;57.76
75942;BME280;64622;46.220;19.878;2024-02-21T10:57:23;101207.69;;;13.59;57.89
75942;BME280;64622;46.220;19.878;2024-02-21T10:59:51;101216.53;;;13.51;59.35
75942;BME280;64622;46.220;19.878;2024-02-21T11:02:17;101212.13;;;13.68;59.19
75942;BME280;64622;46.220;19.878;2024-02-21T11:04:44;101208.34;;;15.28;56.29
75942;BME280;64622;46.220;19.878;2024-02-21T11:07:11;101197.72;;;16.61;51.45
75942;BME280;64622;46.220;19.878;2024-02-21T11:09:38;101190.69;;;15.34;49.43
75942;BME280;64622;46.220;19.878;2024-02-21T11:12:05;101179.34;;;15.94;46.32
75942;BME280;64622;46.220;19.878;2024-02-21T11:14:32;101189.75;;;16.68;45.55
75942;BME280;64622;46.220;19.878;2024-02-21T11:16:59;101190.38;;;16.31;47.08
75942;BME280;64622;46.220;19.878;2024-02-21T11:19:27;101170.16;;;16.96;45.85
75942;BME280;64622;46.220;19.878;2024-02-21T11:21:54;101176.16;;;13.94;47.09
75942;BME280;64622;46.220;19.878;2024-02-21T11:27:18;101169.88;;;16.53;45.91
75942;BME280;64622;46.220;19.878;2024-02-21T11:29:42;101169.69;;;17.15;43.67
75942;BME280;64622;46.220;19.878;2024-02-21T11:32:20;101167.12;;;17.22;42.84
75942;BME280;64622;46.220;19.878;2024-02-21T11:35:00;101162.69;;;16.29;44.85
75942;BME280;64622;46.220;19.878;2024-02-21T11:37:29;101160.81;;;15.27;46.93
75942;BME280;64622;46.220;19.878;2024-02-21T11:39:56;101167.25;;;15.50;47.33
75942;BME280;64622;46.220;19.878;2024-02-21T11:42:24;101159.13;;;14.53;46.94
75942;BME280;64622;46.220;19.878;2024-02-21T11:44:51;101143.62;;;15.44;45.24
75942;BME280;64622;46.220;19.878;2024-02-21T11:47:18;101130.50;;;16.20;44.00
75942;BME280;64622;46.220;19.878;2024-02-21T11:49:46;101129.88;;;17.24;42.31
75942;BME280;64622;46.220;19.878;2024-02-21T11:52:12;101131.69;;;17.54;42.11
75942;BME280;64622;46.220;19.878;2024-02-21T11:54:41;101131.66;;;18.49;41.99
75942;BME280;64622;46.220;19.878;2024-02-21T11:57:08;101130.06;;;18.40;42.48
75942;BME280;64622;46.220;19.878;2024-02-21T11:59:35;101136.75;;;17.12;44.97
75942;BME280;64622;46.220;19.878;2024-02-21T12:02:02;101130.56;;;16.81;44.68
75942;BME280;64622;46.220;19.878;2024-02-21T12:04:31;101131.94;;;16.38;46.17
75942;BME280;64622;46.220;19.878;2024-02-21T12:06:58;101137.91;;;17.77;44.99
75942;BME280;64622;46.220;19.878;2024-02-21T12:09:25;101128.91;;;16.72;45.29
75942;BME280;64622;46.220;19.878;2024-02-21T12:12:02;101130.47;;;17.93;44.05
75942;BME280;64622;46.220;19.878;2024-02-21T12:14:33;101122.75;;;17.53;45.97
75942;BME280;64622;46.220;19.878;2024-02-21T12:17:00;101120.91;;;16.01;48.48
75942;BME280;64622;46.220;19.878;2024-02-21T12:19:31;101109.72;;;15.58;49.24
75942;BME280;64622;46.220;19.878;2024-02-21T12:22:01;101116.81;;;14.95;51.30
75942;BME280;64622;46.220;19.878;2024-02-21T12:24:32;101122.22;;;14.04;53.64
75942;BME280;64622;46.220;19.878;2024-02-21T12:26:58;101112.94;;;13.73;54.08
75942;BME280;64622;46.220;19.878;2024-02-21T12:29:24;101112.75;;;13.66;55.00
75942;BME280;64622;46.220;19.878;2024-02-21T12:31:51;101107.69;;;13.63;53.95
75942;BME280;64622;46.220;19.878;2024-02-21T12:34:18;101106.78;;;13.55;54.25
75942;BME280;64622;46.220;19.878;2024-02-21T12:36:45;101119.38;;;13.54;55.07
75942;BME280;64622;46.220;19.878;2024-02-21T12:39:13;101117.16;;;13.75;55.33
75942;BME280;64622;46.220;19.878;2024-02-21T12:41:40;101111.69;;;13.85;55.21
75942;BME280;64622;46.220;19.878;2024-02-21T12:44:08;101106.44;;;14.09;54.85
75942;BME280;64622;46.220;19.878;2024-02-21T12:46:35;101106.38;;;14.26;54.65
75942;BME280;64622;46.220;19.878;2024-02-21T12:49:02;101098.34;;;13.75;54.73